createdAt,value
2017-10-21T00:00:55.113Z,101224.31
2017-10-21T00:03:23.550Z,101222.77
2017-10-21T00:05:52.026Z,101226.37
2017-10-21T00:08:20.469Z,101219.91
2017-10-21T00:10:48.933Z,101217.38
2017-10-21T00:13:17.377Z,101214.36
2017-10-21T00:15:46.614Z,101215.29
2017-10-21T00:18:15.065Z,101214.07
2017-10-21T00:20:44.804Z,101212.28
2017-10-21T00:23:13.274Z,101215.30
2017-10-21T00:25:41.717Z,101215.78
2017-10-21T00:28:10.946Z,101212.42
2017-10-21T00:30:40.182Z,101214.22
2017-10-21T00:33:08.650Z,101214.34
2017-10-21T00:35:37.148Z,101211.91
2017-10-21T00:38:05.630Z,101213.61
2017-10-21T00:40:34.101Z,101215.03
2017-10-21T00:43:02.569Z,101216.40
2017-10-21T00:45:31.016Z,101205.81
2017-10-21T00:47:59.548Z,101211.05
2017-10-21T00:50:27.984Z,101211.55
2017-10-21T00:52:56.516Z,101210.20
2017-10-21T00:55:24.976Z,101211.53
2017-10-21T00:57:53.412Z,101208.11
2017-10-21T01:00:21.873Z,101213.34
2017-10-21T01:02:50.352Z,101218.20
2017-10-21T01:05:18.818Z,101214.31
2017-10-21T01:07:47.263Z,101214.68
2017-10-21T01:10:16.606Z,101211.69
2017-10-21T01:12:45.094Z,101212.16
2017-10-21T01:15:13.578Z,101210.00
2017-10-21T01:17:42.023Z,101210.02
2017-10-21T01:20:11.252Z,101208.77
2017-10-21T01:22:39.689Z,101214.00
2017-10-21T01:25:08.923Z,101212.22
2017-10-21T01:27:37.422Z,101213.09
2017-10-21T01:30:05.996Z,101213.95
2017-10-21T01:32:34.437Z,101213.56
2017-10-21T01:35:03.649Z,101214.44
2017-10-21T01:37:32.982Z,101214.87
2017-10-21T01:40:01.420Z,101208.90
2017-10-21T01:42:30.653Z,101211.05
2017-10-21T01:44:59.097Z,101213.52
2017-10-21T01:47:27.571Z,101213.39
2017-10-21T01:49:56.013Z,101216.77
2017-10-21T01:52:24.482Z,101217.09
2017-10-21T01:54:52.976Z,101212.66
2017-10-21T01:57:21.562Z,101213.77
2017-10-21T01:59:50.018Z,101211.91
2017-10-21T02:02:18.480Z,101209.61
2017-10-21T02:04:47.730Z,101215.12
2017-10-21T02:07:16.303Z,101214.14
2017-10-21T02:09:44.742Z,101208.92
2017-10-21T02:12:14.081Z,101213.09
2017-10-21T02:14:42.521Z,101213.39
2017-10-21T02:17:11.730Z,101209.91
2017-10-21T02:19:40.957Z,101210.27
2017-10-21T02:22:09.406Z,101218.84
2017-10-21T02:24:38.643Z,101216.73
2017-10-21T02:27:07.135Z,101217.12
2017-10-21T02:29:35.695Z,101211.56
2017-10-21T02:32:04.137Z,101221.06
2017-10-21T02:34:32.610Z,101213.73
2017-10-21T02:37:01.053Z,101215.02
2017-10-21T02:39:29.513Z,101211.16
2017-10-21T02:41:58.731Z,101216.41
2017-10-21T02:44:27.217Z,101217.77
2017-10-21T02:46:55.672Z,101218.62
2017-10-21T02:49:25.011Z,101224.80
2017-10-21T02:51:53.459Z,101220.95
2017-10-21T02:54:22.795Z,101222.64
2017-10-21T02:56:51.280Z,101223.49
2017-10-21T02:59:19.741Z,101218.33
2017-10-21T03:01:48.205Z,101214.58
2017-10-21T03:04:17.413Z,101215.02
2017-10-21T03:06:45.918Z,101221.42
2017-10-21T03:09:14.370Z,101220.97
2017-10-21T03:11:43.600Z,101220.95
2017-10-21T03:14:12.046Z,101220.91
2017-10-21T03:16:41.379Z,101220.48
2017-10-21T03:19:09.867Z,101211.44
2017-10-21T03:21:38.328Z,101212.79
2017-10-21T03:24:06.774Z,101206.32
2017-10-21T03:26:36.002Z,101214.16
2017-10-21T03:29:04.451Z,101211.56
2017-10-21T03:31:33.688Z,101219.38
2017-10-21T03:34:02.130Z,101218.52
2017-10-21T03:36:30.594Z,101216.25
2017-10-21T03:38:59.045Z,101220.55
2017-10-21T03:41:27.638Z,101224.42
2017-10-21T03:43:56.087Z,101223.85
2017-10-21T03:46:25.295Z,101213.94
2017-10-21T03:48:53.781Z,101225.06
2017-10-21T03:51:22.273Z,101224.56
2017-10-21T03:53:50.732Z,101227.89
2017-10-21T03:56:19.933Z,101226.52
2017-10-21T03:58:49.165Z,101231.19
2017-10-21T04:01:17.622Z,101229.45
2017-10-21T04:03:46.094Z,101220.79
2017-10-21T04:06:15.302Z,101227.19
2017-10-21T04:08:43.807Z,101231.92
2017-10-21T04:11:12.246Z,101230.92
2017-10-21T04:13:41.483Z,101230.98
2017-10-21T04:16:09.924Z,101233.08
2017-10-21T04:18:39.271Z,101231.84
2017-10-21T04:21:07.713Z,101234.87
2017-10-21T04:23:36.957Z,101234.06
2017-10-21T04:26:05.406Z,101237.59
2017-10-21T04:28:33.851Z,101241.04
2017-10-21T04:31:02.314Z,101242.27
2017-10-21T04:33:30.778Z,101240.11
2017-10-21T04:35:59.241Z,101239.25
2017-10-21T04:38:28.134Z,101234.09
2017-10-21T04:40:56.611Z,101236.24
2017-10-21T04:43:25.111Z,101238.39
2017-10-21T04:45:53.587Z,101241.39
2017-10-21T04:48:22.034Z,101239.81
2017-10-21T04:50:51.279Z,101239.83
2017-10-21T04:53:19.731Z,101241.55
2017-10-21T04:55:48.974Z,101238.47
2017-10-21T04:58:17.419Z,101235.43
2017-10-21T05:00:45.903Z,101236.31
2017-10-21T05:03:14.342Z,101240.13
2017-10-21T05:05:42.890Z,101244.42
2017-10-21T05:08:11.329Z,101241.86
2017-10-21T05:10:40.575Z,101247.03
2017-10-21T05:13:09.046Z,101246.87
2017-10-21T05:15:37.539Z,101248.16
2017-10-21T05:18:06.012Z,101250.67
2017-10-21T05:20:34.457Z,101254.07
2017-10-21T05:23:03.691Z,101256.67
2017-10-21T05:25:32.169Z,101256.65
2017-10-21T05:28:00.633Z,101263.92
2017-10-21T05:30:29.143Z,101263.89
2017-10-21T05:32:57.619Z,101266.91
2017-10-21T05:35:26.057Z,101262.18
2017-10-21T05:37:55.398Z,101272.53
2017-10-21T05:40:23.847Z,101272.91
2017-10-21T05:42:53.087Z,101276.71
2017-10-21T05:45:21.561Z,101274.94
2017-10-21T05:47:50.028Z,101272.20
2017-10-21T05:50:18.474Z,101272.55
2017-10-21T05:52:46.933Z,101276.04
2017-10-21T05:55:17.129Z,101284.22
2017-10-21T05:57:45.595Z,101280.32
2017-10-21T06:00:14.103Z,101280.28
2017-10-21T06:02:42.547Z,101286.38
2017-10-21T06:05:11.879Z,101284.59
2017-10-21T06:07:40.325Z,101281.50
2017-10-21T06:10:09.554Z,101286.67
2017-10-21T06:12:37.998Z,101288.25
2017-10-21T06:15:07.234Z,101299.95
2017-10-21T06:17:39.725Z,101290.91
2017-10-21T06:20:08.200Z,101291.73
2017-10-21T06:22:36.645Z,101290.59
2017-10-21T06:25:05.876Z,101297.11
2017-10-21T06:27:34.313Z,101299.58
2017-10-21T06:30:02.851Z,101292.33
2017-10-21T06:32:31.289Z,101290.72
2017-10-21T06:35:00.525Z,101297.84
2017-10-21T06:37:28.975Z,101296.18
2017-10-21T06:39:58.305Z,101293.96
2017-10-21T06:42:26.750Z,101292.60
2017-10-21T06:44:55.987Z,101297.84
2017-10-21T06:47:24.443Z,101299.42
2017-10-21T06:49:53.651Z,101302.06
2017-10-21T06:52:22.158Z,101303.99
2017-10-21T06:54:50.598Z,101303.33
2017-10-21T06:57:19.933Z,101301.73
2017-10-21T06:59:48.390Z,101298.09
2017-10-21T07:02:17.622Z,101299.25
2017-10-21T07:04:46.098Z,101303.48
2017-10-21T07:07:14.574Z,101304.27
2017-10-21T07:09:43.075Z,101301.81
2017-10-21T07:12:11.545Z,101302.41
2017-10-21T07:14:39.989Z,101303.71
2017-10-21T07:17:09.217Z,101300.36
2017-10-21T07:19:37.662Z,101298.55
2017-10-21T07:22:06.903Z,101302.86
2017-10-21T07:24:35.341Z,101304.58
2017-10-21T07:27:04.695Z,101302.41
2017-10-21T07:29:33.179Z,101305.31
2017-10-21T07:32:01.654Z,101295.02
2017-10-21T07:34:30.133Z,101296.72
2017-10-21T07:36:58.627Z,101307.98
2017-10-21T07:39:27.089Z,101305.66
2017-10-21T07:41:55.573Z,101305.63
2017-10-21T07:44:24.866Z,101311.51
2017-10-21T07:46:53.301Z,101307.11
2017-10-21T07:49:21.761Z,101311.28
2017-10-21T07:51:50.234Z,101313.16
2017-10-21T07:54:18.697Z,101309.55
2017-10-21T07:56:47.137Z,101314.43
2017-10-21T07:59:16.499Z,101317.55
2017-10-21T08:01:44.974Z,101319.06
2017-10-21T08:04:13.448Z,101318.37
2017-10-21T08:06:41.894Z,101328.24
2017-10-21T08:09:11.102Z,101324.05
2017-10-21T08:11:40.336Z,101327.02
2017-10-21T08:14:08.784Z,101326.94
2017-10-21T08:16:38.014Z,101322.84
2017-10-21T08:19:06.453Z,101331.30
2017-10-21T08:21:35.690Z,101328.98
2017-10-21T08:24:04.139Z,101333.38
2017-10-21T08:26:33.374Z,101327.58
2017-10-21T08:29:01.809Z,101327.33
2017-10-21T08:31:30.359Z,101327.93
2017-10-21T08:33:58.803Z,101340.19
2017-10-21T08:36:27.265Z,101333.37
2017-10-21T08:38:56.518Z,101331.21
2017-10-21T08:41:25.142Z,101331.67
2017-10-21T08:43:54.361Z,101334.49
2017-10-21T08:46:23.596Z,101334.60
2017-10-21T08:48:52.046Z,101334.66
2017-10-21T08:51:21.278Z,101330.42
2017-10-21T08:53:49.748Z,101333.75
2017-10-21T08:56:18.243Z,101330.41
2017-10-21T08:58:46.826Z,101338.73
2017-10-21T09:01:15.269Z,101334.58
2017-10-21T09:03:44.493Z,101335.79
2017-10-21T09:06:12.930Z,101333.98
2017-10-21T09:08:41.394Z,101336.33
2017-10-21T09:11:09.844Z,101345.06
2017-10-21T09:13:38.314Z,101339.80
2017-10-21T09:16:06.766Z,101345.84
2017-10-21T09:18:36.115Z,101341.92
2017-10-21T09:21:04.556Z,101348.70
2017-10-21T09:23:33.792Z,101342.65
2017-10-21T09:26:02.238Z,101344.44
2017-10-21T09:28:31.478Z,101345.14
2017-10-21T09:30:59.926Z,101348.05
2017-10-21T09:33:29.185Z,101344.88
2017-10-21T09:35:57.640Z,101341.84
2017-10-21T09:38:26.099Z,101333.33
2017-10-21T09:40:54.565Z,101342.67
2017-10-21T09:43:23.774Z,101331.39
2017-10-21T09:45:52.250Z,101334.96
2017-10-21T09:48:21.486Z,101336.02
2017-10-21T09:50:49.946Z,101326.88
2017-10-21T09:53:18.381Z,101322.43
2017-10-21T09:55:46.846Z,101321.81
2017-10-21T09:58:15.295Z,101319.89
2017-10-21T10:00:43.752Z,101322.01
2017-10-21T10:03:12.992Z,101321.66
2017-10-21T10:05:41.465Z,101319.11
2017-10-21T10:08:09.955Z,101314.55
2017-10-21T10:10:38.423Z,101311.41
2017-10-21T10:13:06.857Z,101319.10
2017-10-21T10:15:35.405Z,101315.84
2017-10-21T10:18:03.859Z,101316.36
2017-10-21T10:20:32.365Z,101318.34
2017-10-21T10:23:00.825Z,101311.05
2017-10-21T10:25:29.270Z,101315.83
2017-10-21T10:27:57.808Z,101315.63
2017-10-21T10:30:26.390Z,101309.47
2017-10-21T10:32:54.849Z,101309.45
2017-10-21T10:35:24.068Z,101304.44
2017-10-21T10:37:52.562Z,101311.73
2017-10-21T10:40:21.002Z,101316.73
2017-10-21T10:42:50.345Z,101308.08
2017-10-21T10:45:18.786Z,101309.70
2017-10-21T10:47:48.018Z,101298.47
2017-10-21T10:50:16.472Z,101297.73
2017-10-21T10:52:44.954Z,101297.86
2017-10-21T10:55:14.164Z,101290.50
2017-10-21T10:57:42.672Z,101293.53
2017-10-21T11:00:11.254Z,101287.31
2017-10-21T11:02:39.735Z,101290.65
2017-10-21T11:05:08.203Z,101288.34
2017-10-21T11:07:36.636Z,101288.72
2017-10-21T11:10:05.183Z,101291.25
2017-10-21T11:12:33.662Z,101297.95
2017-10-21T11:15:02.242Z,101289.45
2017-10-21T11:17:30.686Z,101299.89
2017-10-21T11:20:00.021Z,101296.48
2017-10-21T11:22:28.456Z,101297.52
2017-10-21T11:24:56.925Z,101288.86
2017-10-21T11:27:25.366Z,101289.89
2017-10-21T11:29:53.837Z,101280.03
2017-10-21T11:32:22.272Z,101286.45
2017-10-21T11:34:50.749Z,101282.25
2017-10-21T11:37:19.196Z,101272.12
2017-10-21T11:39:47.641Z,101277.33
2017-10-21T11:42:16.967Z,101275.59
2017-10-21T11:44:45.404Z,101270.81
2017-10-21T11:47:13.865Z,101268.78
2017-10-21T11:49:42.330Z,101270.56
2017-10-21T11:52:10.800Z,101269.94
2017-10-21T11:54:39.286Z,101266.38
2017-10-21T11:57:07.764Z,101267.87
2017-10-21T11:59:36.198Z,101269.14
2017-10-21T12:02:04.665Z,101276.55
2017-10-21T12:04:33.125Z,101273.56
2017-10-21T12:07:01.596Z,101270.20
2017-10-21T12:09:30.083Z,101272.86
2017-10-21T12:11:58.667Z,101270.70
2017-10-21T12:14:27.105Z,101273.06
2017-10-21T12:16:56.365Z,101268.94
2017-10-21T12:19:24.812Z,101270.03
2017-10-21T12:21:53.249Z,101266.76
2017-10-21T12:24:22.473Z,101266.75
2017-10-21T12:26:51.683Z,101267.28
2017-10-21T12:29:20.181Z,101266.55
2017-10-21T12:31:48.622Z,101273.52
2017-10-21T12:34:17.974Z,101270.27
2017-10-21T12:36:46.414Z,101269.46
2017-10-21T12:39:15.642Z,101266.84
2017-10-21T12:41:44.086Z,101264.45
2017-10-21T12:44:13.416Z,101269.63
2017-10-21T12:46:41.871Z,101262.00
2017-10-21T12:49:11.106Z,101261.81
2017-10-21T12:51:39.585Z,101258.09
2017-10-21T12:54:08.045Z,101255.53
2017-10-21T12:56:37.258Z,101251.64
2017-10-21T12:59:05.738Z,101251.72
2017-10-21T13:01:34.187Z,101252.14
2017-10-21T13:04:02.634Z,101250.55
2017-10-21T13:06:31.103Z,101247.20
2017-10-21T13:08:59.586Z,101255.21
2017-10-21T13:11:28.058Z,101258.75
2017-10-21T13:13:56.506Z,101248.11
2017-10-21T13:16:25.737Z,101252.52
2017-10-21T13:18:54.234Z,101249.67
2017-10-21T13:21:22.697Z,101263.12
2017-10-21T13:23:51.138Z,101272.53
2017-10-21T13:26:19.610Z,101271.36
2017-10-21T13:28:48.049Z,101262.41
2017-10-21T13:31:16.542Z,101261.59
2017-10-21T13:33:44.984Z,101265.62
2017-10-21T13:36:14.208Z,101255.72
2017-10-21T13:38:42.660Z,101255.75
2017-10-21T13:41:12.007Z,101255.41
2017-10-21T13:43:40.475Z,101266.60
2017-10-21T13:48:42.666Z,101261.02
2017-10-21T13:51:11.115Z,101266.19
2017-10-21T13:53:40.347Z,101265.17
2017-10-21T13:56:08.795Z,101265.62
2017-10-21T13:58:38.142Z,101256.64
2017-10-21T14:01:06.608Z,101252.73
2017-10-21T14:03:35.073Z,101259.66
2017-10-21T14:06:03.586Z,101256.16
2017-10-21T14:08:32.055Z,101260.08
2017-10-21T14:11:00.499Z,101268.77
2017-10-21T14:13:29.744Z,101265.09
2017-10-21T14:15:58.192Z,101269.23
2017-10-21T14:18:27.594Z,101265.95
2017-10-21T14:20:56.801Z,101255.22
2017-10-21T14:23:26.012Z,101259.43
2017-10-21T14:25:54.479Z,101262.15
2017-10-21T14:28:23.687Z,101263.17
2017-10-21T14:30:52.145Z,101268.71
2017-10-21T14:33:21.430Z,101269.49
2017-10-21T14:35:50.674Z,101263.60
2017-10-21T14:38:19.118Z,101263.51
2017-10-21T14:40:47.591Z,101262.46
2017-10-21T14:43:16.029Z,101263.78
2017-10-21T14:45:44.520Z,101259.55
2017-10-21T14:48:12.967Z,101265.14
2017-10-21T14:50:42.200Z,101271.56
2017-10-21T14:53:10.683Z,101267.34
2017-10-21T14:55:39.883Z,101269.23
2017-10-21T14:58:08.367Z,101280.14
2017-10-21T15:00:36.828Z,101276.89
2017-10-21T15:03:05.278Z,101278.00
2017-10-21T15:05:35.321Z,101281.63
2017-10-21T15:08:03.803Z,101282.34
2017-10-21T15:10:32.259Z,101279.41
2017-10-21T15:13:01.601Z,101282.55
2017-10-21T15:15:30.042Z,101297.55
2017-10-21T15:17:59.317Z,101293.22
2017-10-21T15:20:27.880Z,101292.67
2017-10-21T15:22:56.341Z,101291.77
2017-10-21T15:25:24.845Z,101288.45
2017-10-21T15:27:53.311Z,101295.02
2017-10-21T15:30:21.749Z,101306.54
2017-10-21T15:32:50.234Z,101304.09
2017-10-21T15:35:19.490Z,101302.47
2017-10-21T15:37:47.939Z,101303.77
2017-10-21T15:40:16.404Z,101306.47
2017-10-21T15:42:45.612Z,101296.61
2017-10-21T15:45:14.960Z,101295.33
2017-10-21T15:47:43.407Z,101292.44
2017-10-21T15:50:11.922Z,101296.89
2017-10-21T15:52:40.362Z,101287.73
2017-10-21T15:55:09.594Z,101285.06
2017-10-21T15:57:38.047Z,101281.49
2017-10-21T16:00:06.517Z,101279.33
2017-10-21T16:02:35.721Z,101276.39
2017-10-21T16:05:04.975Z,101284.77
2017-10-21T16:07:33.413Z,101277.16
2017-10-21T16:10:01.862Z,101281.24
2017-10-21T16:12:30.360Z,101274.63
2017-10-21T16:14:59.592Z,101267.89
2017-10-21T16:17:28.059Z,101268.78
2017-10-21T16:19:56.578Z,101262.80
2017-10-21T16:22:25.055Z,101262.47
2017-10-21T16:24:53.638Z,101252.16
2017-10-21T16:27:22.097Z,101259.29
2017-10-21T16:29:50.598Z,101256.80
2017-10-21T16:32:19.057Z,101271.50
2017-10-21T16:34:47.565Z,101278.78
2017-10-21T16:37:16.139Z,101277.56
2017-10-21T16:39:44.585Z,101279.84
2017-10-21T16:42:13.789Z,101282.78
2017-10-21T16:44:43.130Z,101285.05
2017-10-21T16:47:11.568Z,101285.91
2017-10-21T16:49:40.807Z,101292.02
2017-10-21T16:52:09.249Z,101284.77
2017-10-21T16:54:38.484Z,101280.28
2017-10-21T16:57:06.970Z,101278.38
2017-10-21T16:59:35.554Z,101280.20
2017-10-21T17:02:04.006Z,101279.77
2017-10-21T17:04:32.482Z,101278.59
2017-10-21T17:07:01.695Z,101270.86
2017-10-21T17:09:30.158Z,101267.85
2017-10-21T17:11:59.366Z,101266.28
2017-10-21T17:14:28.700Z,101267.19
2017-10-21T17:16:57.182Z,101272.44
2017-10-21T17:19:25.621Z,101275.92
2017-10-21T17:21:54.849Z,101280.25
2017-10-21T17:24:23.294Z,101279.03
2017-10-21T17:26:52.651Z,101288.55
2017-10-21T17:29:21.122Z,101290.86
2017-10-21T17:31:49.610Z,101290.02
2017-10-21T17:34:18.062Z,101288.70
2017-10-21T17:36:46.540Z,101289.50
2017-10-21T17:39:15.749Z,101285.25
2017-10-21T17:41:44.213Z,101280.49
2017-10-21T17:44:13.429Z,101275.94
2017-10-21T17:46:41.894Z,101268.94
2017-10-21T17:49:11.106Z,101270.39
2017-10-21T17:51:39.575Z,101267.80
2017-10-21T17:54:08.815Z,101272.89
2017-10-21T17:56:37.289Z,101268.73
2017-10-21T17:59:05.742Z,101269.98
2017-10-21T18:01:34.975Z,101269.22
2017-10-21T18:04:03.463Z,101272.20
2017-10-21T18:06:32.269Z,101271.41
2017-10-21T18:09:00.733Z,101269.66
2017-10-21T18:11:29.179Z,101286.17
2017-10-21T18:13:58.407Z,101295.16
2017-10-21T18:16:26.853Z,101298.23
2017-10-21T18:18:56.077Z,101302.55
2017-10-21T18:21:24.645Z,101296.06
2017-10-21T18:23:53.934Z,101301.19
2017-10-21T18:26:23.178Z,101311.14
2017-10-21T18:28:51.753Z,101305.86
2017-10-21T18:31:20.199Z,101299.01
2017-10-21T18:33:49.441Z,101289.56
2017-10-21T18:36:17.894Z,101294.05
2017-10-21T18:38:46.407Z,101284.90
2017-10-21T18:41:14.851Z,101280.33
2017-10-21T18:43:44.118Z,101271.33
2017-10-21T18:46:12.848Z,101271.61
2017-10-21T18:48:41.573Z,101271.25
2017-10-21T18:51:10.026Z,101265.70
2017-10-21T18:53:38.513Z,101258.38
2017-10-21T18:56:07.006Z,101252.94
2017-10-21T18:58:35.488Z,101258.64
2017-10-21T19:01:03.953Z,101256.92
2017-10-21T19:03:32.390Z,101250.87
2017-10-21T19:06:00.906Z,101245.39
2017-10-21T19:08:30.140Z,101241.70
2017-10-21T19:10:58.710Z,101237.88
2017-10-21T19:13:27.203Z,101232.80
2017-10-21T19:15:55.737Z,101234.16
2017-10-21T19:18:24.952Z,101240.14
2017-10-21T19:20:54.199Z,101251.45
2017-10-21T19:23:22.733Z,101253.87
2017-10-21T19:25:52.061Z,101248.27
2017-10-21T19:28:20.548Z,101250.86
2017-10-21T19:30:49.139Z,101249.46
2017-10-21T19:33:17.601Z,101247.75
2017-10-21T19:35:46.297Z,101242.70
2017-10-21T19:38:14.751Z,101242.30
2017-10-21T19:40:43.193Z,101241.00
2017-10-21T19:43:11.747Z,101236.41
2017-10-21T19:45:40.195Z,101236.51
2017-10-21T19:48:09.521Z,101226.91
2017-10-21T19:50:38.087Z,101231.23
2017-10-21T19:53:07.610Z,101229.09
2017-10-21T19:55:36.115Z,101224.67
2017-10-21T19:58:04.597Z,101228.30
2017-10-21T20:00:33.075Z,101218.45
2017-10-21T20:03:01.581Z,101223.11
2017-10-21T20:05:30.026Z,101218.44
2017-10-21T20:07:58.492Z,101217.90
2017-10-21T20:10:26.950Z,101219.64
2017-10-21T20:12:56.377Z,101228.70
2017-10-21T20:15:24.827Z,101215.68
2017-10-21T20:17:53.368Z,101228.11
2017-10-21T20:20:22.274Z,101229.32
2017-10-21T20:22:50.743Z,101227.69
2017-10-21T20:25:19.209Z,101228.44
2017-10-21T20:27:47.649Z,101228.53
2017-10-21T20:30:16.190Z,101236.95
2017-10-21T20:32:44.637Z,101237.88
2017-10-21T20:35:13.966Z,101230.02
2017-10-21T20:37:42.410Z,101224.84
2017-10-21T20:40:11.637Z,101218.16
2017-10-21T20:42:40.069Z,101216.37
2017-10-21T20:45:08.533Z,101211.84
2017-10-21T20:47:36.977Z,101206.70
2017-10-21T20:50:05.444Z,101199.87
2017-10-21T20:52:34.645Z,101195.20
2017-10-21T20:55:03.871Z,101192.61
2017-10-21T20:57:32.317Z,101189.92
2017-10-21T21:00:01.551Z,101191.73
2017-10-21T21:02:30.007Z,101185.77
2017-10-21T21:04:58.498Z,101178.89
2017-10-21T21:07:27.003Z,101181.56
2017-10-21T21:09:55.531Z,101177.73
2017-10-21T21:12:23.998Z,101168.58
2017-10-21T21:14:52.546Z,101158.64
2017-10-21T21:17:21.028Z,101154.85
2017-10-21T21:19:49.473Z,101157.47
2017-10-21T21:22:18.701Z,101161.48
2017-10-21T21:24:47.190Z,101155.87
2017-10-21T21:27:15.658Z,101151.23
2017-10-21T21:29:44.093Z,101152.97
2017-10-21T21:32:12.549Z,101152.94
2017-10-21T21:34:40.998Z,101150.72
2017-10-21T21:37:09.475Z,101148.13
2017-10-21T21:39:37.927Z,101154.84
2017-10-21T21:42:06.467Z,101151.41
2017-10-21T21:44:34.945Z,101145.69
2017-10-21T21:47:03.390Z,101141.72
2017-10-21T21:49:32.629Z,101139.13
2017-10-21T21:52:01.069Z,101143.52
2017-10-21T21:54:30.293Z,101145.37
2017-10-21T21:56:58.729Z,101142.69
2017-10-21T21:59:27.195Z,101145.09
2017-10-21T22:01:55.642Z,101134.33
2017-10-21T22:04:24.114Z,101147.28
2017-10-21T22:06:52.561Z,101148.56
2017-10-21T22:09:21.033Z,101149.67
2017-10-21T22:11:49.465Z,101142.95
2017-10-21T22:14:17.958Z,101143.91
2017-10-21T22:16:46.392Z,101146.13
2017-10-21T22:19:14.853Z,101151.20
2017-10-21T22:21:43.289Z,101152.00
2017-10-21T22:24:11.755Z,101152.80
2017-10-21T22:26:40.982Z,101151.94
2017-10-21T22:29:09.418Z,101147.59
2017-10-21T22:31:38.655Z,101141.14
2017-10-21T22:34:07.150Z,101138.07
2017-10-21T22:36:35.618Z,101134.11
2017-10-21T22:39:04.062Z,101136.62
2017-10-21T22:41:33.309Z,101128.95
2017-10-21T22:44:01.758Z,101117.97
2017-10-21T22:46:31.091Z,101114.01
2017-10-21T22:48:59.538Z,101114.86
2017-10-21T22:51:28.762Z,101125.41
2017-10-21T22:53:57.201Z,101125.59
2017-10-21T22:56:25.689Z,101127.32
2017-10-21T22:58:54.901Z,101141.56
2017-10-21T23:01:24.238Z,101141.88
2017-10-21T23:03:52.725Z,101148.99
2017-10-21T23:06:21.211Z,101153.44
2017-10-21T23:08:49.679Z,101151.23
2017-10-21T23:11:18.129Z,101154.66
2017-10-21T23:13:47.363Z,101145.42
2017-10-21T23:16:16.357Z,101145.27
2017-10-21T23:18:44.834Z,101140.52
2017-10-21T23:21:13.277Z,101129.02
2017-10-21T23:23:42.511Z,101126.89
2017-10-21T23:26:10.965Z,101137.17
2017-10-21T23:28:40.310Z,101134.96
2017-10-21T23:31:08.791Z,101133.77
2017-10-21T23:33:37.248Z,101124.26
2017-10-21T23:36:05.682Z,101125.32
2017-10-21T23:38:34.233Z,101118.93
2017-10-21T23:41:02.684Z,101105.20
2017-10-21T23:43:31.946Z,101111.56
2017-10-21T23:46:00.390Z,101109.28
2017-10-21T23:48:28.829Z,101101.14
2017-10-21T23:50:57.363Z,101099.92
2017-10-21T23:53:26.771Z,101094.55
2017-10-21T23:55:55.347Z,101089.06
2017-10-21T23:58:23.789Z,101084.05
